DTMB/MIR METAR and TAF weather

Enter ICAO airport designator
Station Type Date Time Source
DTMB METAR 2022/01/25 04:00 UTC NOAA

DTMB 250400Z 30004KT 220V360 6000 SCT020 SCT033 10/07 Q1028


Station Type Date Time Source
DTMB Decoded METAR 2022/01/25 04:00 UTC NOAA

Habib Bourguiba , Tunisia (DTMB) 35-46N 010-45E
Jan 24, 2022 - 11:00 PM EST / 2022.01.25 0400 UTC
Wind: from the WNW (300 degrees) at 5 MPH (4 KT) (direction variable):0
Visibility: 3 mile(s):0
Sky conditions: partly cloudy
Temperature: 50 F (10 C)
Dew Point: 44 F (7 C)
Relative Humidity: 81%
Pressure (altimeter): 30.36 in. Hg (1028 hPa)
ob: DTMB 250400Z 30004KT 220V360 6000 SCT020 SCT033 10/07 Q1028
cycle: 4

Station Type Date Time Source
DTMB TAF 2022/01/25 00:04 UTC NOAA

TAF DTMB 242300Z 2500/2524 30008KT 9999 FEW020 PROB30
TEMPO 2501/2507 02015KT 7000 RA BKN020TCU

Example: see airport list